This is the latest recevied weather packets stored in our database for station/object EB1GOD-1. If no packets are shown the sender has not sent any weather packets the latest 10 day(s).
| Time | Temp. | Humidity | Pressure | Rain* | Wind** | Luminosity | Snow |
|---|---|---|---|---|---|---|---|
| 1777392002 | 22.22° C | 57% | 1149.8 hPa | - | - | - | - |
| 1777391145 | 20.56° C | 59% | 1149.8 hPa | - | - | - | - |
| 1777391102 | 20.56° C | 59% | 1149.8 hPa | - | - | - | - |
| 1777390202 | 21.11° C | 60% | 1150.1 hPa | - | - | - | - |
| 1777389302 | 21.11° C | 60% | 1149.9 hPa | - | - | - | - |
| 1777388402 | 20.56° C | 64% | 1150.1 hPa | - | - | - | - |
| 1777387488 | 21.11° C | 60% | 1150 hPa | - | - | - | - |
| 1777386588 | 20.56° C | 63% | 1150.2 hPa | - | - | - | - |
| 1777385688 | 22.22° C | 57% | 1150 hPa | - | - | - | - |
| 1777384788 | 23.89° C | 49% | 1150.1 hPa | - | - | - | - |
| 1777383888 | 22.22° C | 56% | 1150.4 hPa | - | - | - | - |
| 1777382988 | 22.22° C | 60% | 1150.5 hPa | - | - | - | - |
| 1777382088 | 20.56° C | 63% | 1150.7 hPa | - | - | - | - |
| 1777381188 | 20° C | 66% | 1151 hPa | - | - | - | - |
| 1777380287 | 18.89° C | 70% | 1151 hPa | - | - | - | - |
| 1777379388 | 17.78° C | 73% | 1151.3 hPa | - | - | - | - |
| 1777378487 | 17.78° C | 75% | 1151.6 hPa | - | - | - | - |
| 1777377587 | 18.33° C | 74% | 1151.7 hPa | - | - | - | - |
| 1777376687 | 18.89° C | 72% | 1151.9 hPa | - | - | - | - |
| 1777375787 | 16.67° C | 79% | 1151.9 hPa | - | - | - | - |
| 1777374887 | 16.67° C | 80% | 1152 hPa | - | - | - | - |
| 1777373987 | 16.11° C | 82% | 1152.2 hPa | - | - | - | - |
| 1777373087 | 16.67° C | 81% | 1152.3 hPa | - | - | - | - |
| 1777372187 | 16.67° C | 82% | 1152.4 hPa | - | - | - | - |
| 1777371287 | 16.11° C | 84% | 1152.3 hPa | - | - | - | - |
* Rain since midnight (hover to see other rain measurements)
** Current wind speed in m/s (hover to see current wind gust speed)